Pegswood, United Kingdom
Current Conditions -  °F | °C
As of 3:20 PM on Friday 28 Nov 2014 (Local Time) from EGNT Reporting Station
Haze Haze  
Wind Chill: 45°   Ceiling: 300
Heat Index: 48°   Visibility: 1.8mi
Dew Point: 48°   Wind: 7mph
Humidity: 100%   Direction: 90°E
Pressure: 29.77"   Gusts: NA
Location:  55.18°N, 1.65°W
Report Text: EGNT 281520Z 09006KT 060V130 3000 BR BKN003 09/09 Q1008
Loading
Personal Weather Stations






























Interactive Weather Map New forecast layout! Learn more

10-Day Weather Forecast

Advertisements
Track Severe Weather on mobile